createdAt,value
2019-03-05T00:00:44.402Z,99.90
2019-03-05T00:03:10.810Z,99.90
2019-03-05T00:05:37.277Z,99.90
2019-03-05T00:08:03.786Z,99.90
2019-03-05T00:10:30.192Z,99.90
2019-03-05T00:12:56.664Z,99.90
2019-03-05T00:15:25.349Z,99.90
2019-03-05T00:17:51.731Z,99.90
2019-03-05T00:20:18.123Z,99.90
2019-03-05T00:22:44.589Z,99.90
2019-03-05T00:25:16.646Z,99.90
2019-03-05T00:27:46.847Z,99.90
2019-03-05T00:30:35.223Z,99.90
2019-03-05T00:33:20.568Z,99.90
2019-03-05T00:36:02.863Z,99.90
2019-03-05T00:38:33.095Z,99.90
2019-03-05T00:41:03.314Z,99.90
2019-03-05T00:43:49.035Z,99.90
2019-03-05T00:46:19.480Z,99.90
2019-03-05T00:48:55.721Z,99.90
2019-03-05T00:51:34.820Z,99.90
2019-03-05T00:54:38.864Z,99.90
2019-03-05T00:57:29.305Z,99.70
2019-03-05T00:59:59.660Z,99.80
2019-03-05T01:02:44.579Z,99.70
2019-03-05T01:05:26.971Z,99.60
2019-03-05T01:07:53.659Z,99.50
2019-03-05T01:10:20.430Z,99.40
2019-03-05T01:12:46.817Z,99.30
2019-03-05T01:15:13.465Z,99.10
2019-03-05T01:17:39.861Z,99.10
2019-03-05T01:20:09.373Z,99.00
2019-03-05T01:22:35.940Z,98.90
2019-03-05T01:25:03.752Z,98.80
2019-03-05T01:27:30.157Z,98.90
2019-03-05T01:29:56.633Z,99.00
2019-03-05T01:32:37.041Z,99.00
2019-03-05T01:35:07.860Z,99.00
2019-03-05T01:37:34.287Z,99.10
2019-03-05T01:40:02.680Z,99.20
2019-03-05T01:42:29.256Z,99.10
2019-03-05T01:44:55.755Z,99.10
2019-03-05T01:47:23.087Z,99.10
2019-03-05T01:49:49.536Z,99.30
2019-03-05T01:52:16.224Z,99.20
2019-03-05T01:54:42.622Z,99.10
2019-03-05T01:57:09.144Z,99.20
2019-03-05T01:59:35.593Z,99.30
2019-03-05T02:02:02.082Z,99.30
2019-03-05T02:04:28.492Z,99.30
2019-03-05T02:06:54.862Z,99.40
2019-03-05T02:09:21.310Z,99.50
2019-03-05T02:11:47.700Z,99.20
2019-03-05T02:14:14.103Z,99.30
2019-03-05T02:16:40.505Z,99.20
2019-03-05T02:19:36.006Z,99.30
2019-03-05T02:22:04.140Z,99.20
2019-03-05T02:24:52.503Z,99.10
2019-03-05T02:27:39.603Z,99.30
2019-03-05T02:30:18.386Z,99.50
2019-03-05T02:33:21.869Z,99.60
2019-03-05T02:36:21.051Z,99.60
2019-03-05T02:38:57.094Z,99.60
2019-03-05T02:41:38.874Z,99.40
2019-03-05T02:44:17.963Z,99.10
2019-03-05T02:46:54.227Z,99.20
2019-03-05T02:49:27.131Z,99.30
2019-03-05T02:51:57.373Z,99.30
2019-03-05T02:54:53.808Z,99.20
2019-03-05T02:57:20.037Z,99.10
2019-03-05T02:59:46.358Z,99.10
2019-03-05T03:02:31.097Z,99.20
2019-03-05T03:05:14.725Z,99.10
2019-03-05T03:07:41.139Z,98.80
2019-03-05T03:10:16.212Z,99.40
2019-03-05T03:12:42.722Z,99.20
2019-03-05T03:15:10.412Z,99.30
2019-03-05T03:17:36.840Z,99.20
2019-03-05T03:20:08.814Z,99.40
2019-03-05T03:22:35.168Z,99.50
2019-03-05T03:25:02.292Z,99.40
2019-03-05T03:27:29.249Z,99.60
2019-03-05T03:29:55.846Z,99.50
2019-03-05T03:32:22.484Z,99.50
2019-03-05T03:34:48.844Z,99.40
2019-03-05T03:37:15.318Z,99.50
2019-03-05T03:39:41.668Z,99.40
2019-03-05T03:42:08.116Z,99.80
2019-03-05T03:44:34.527Z,99.30
2019-03-05T03:47:00.938Z,99.30
2019-03-05T03:49:27.312Z,99.10
2019-03-05T03:51:53.758Z,99.00
2019-03-05T03:54:20.255Z,98.90
2019-03-05T03:56:46.717Z,98.90
2019-03-05T03:59:13.171Z,98.90
2019-03-05T04:01:39.561Z,99.00
2019-03-05T04:04:06.009Z,98.70
2019-03-05T04:06:32.563Z,98.60
2019-03-05T04:08:59.014Z,98.60
2019-03-05T04:11:25.433Z,98.50
2019-03-05T04:13:51.855Z,98.40
2019-03-05T04:16:18.292Z,98.50
2019-03-05T04:18:44.698Z,98.40
2019-03-05T04:21:11.151Z,98.50
2019-03-05T04:23:37.517Z,98.40
2019-03-05T04:26:03.933Z,98.20
2019-03-05T04:28:30.269Z,98.10
2019-03-05T04:30:56.661Z,98.40
2019-03-05T04:33:23.031Z,98.30
2019-03-05T04:35:49.492Z,98.50
2019-03-05T04:38:15.835Z,98.50
2019-03-05T04:40:42.262Z,98.50
2019-03-05T04:43:09.163Z,98.60
2019-03-05T04:45:42.004Z,98.70
2019-03-05T04:48:08.381Z,98.80
2019-03-05T04:50:36.699Z,98.80
2019-03-05T04:53:03.124Z,98.90
2019-03-05T04:55:29.549Z,98.80
2019-03-05T04:57:55.980Z,98.90
2019-03-05T05:00:22.872Z,98.80
2019-03-05T05:02:49.271Z,98.70
2019-03-05T05:05:15.705Z,98.70
2019-03-05T05:07:42.076Z,98.60
2019-03-05T05:10:08.642Z,99.00
2019-03-05T05:12:35.067Z,98.80
2019-03-05T05:15:24.994Z,98.90
2019-03-05T05:17:51.411Z,99.00
2019-03-05T05:20:17.741Z,99.10
2019-03-05T05:22:44.140Z,99.00
2019-03-05T05:25:10.448Z,99.40
2019-03-05T05:27:36.860Z,99.40
2019-03-05T05:30:06.912Z,99.00
2019-03-05T05:32:33.308Z,99.20
2019-03-05T05:34:59.709Z,99.20
2019-03-05T05:37:26.178Z,99.20
2019-03-05T05:40:25.021Z,99.30
2019-03-05T05:42:51.399Z,99.50
2019-03-05T05:45:20.766Z,99.50
2019-03-05T05:47:47.183Z,99.50
2019-03-05T05:50:13.722Z,99.50
2019-03-05T05:52:40.037Z,99.40
2019-03-05T05:55:06.447Z,99.50
2019-03-05T05:57:32.851Z,99.50
2019-03-05T05:59:59.301Z,99.60
2019-03-05T06:02:25.635Z,99.50
2019-03-05T06:04:52.006Z,99.60
2019-03-05T06:07:18.347Z,99.50
2019-03-05T06:09:44.773Z,99.50
2019-03-05T06:12:11.387Z,99.50
2019-03-05T06:14:37.862Z,99.70
2019-03-05T06:17:04.249Z,99.30
2019-03-05T06:19:30.651Z,99.40
2019-03-05T06:21:57.119Z,99.40
2019-03-05T06:24:23.554Z,99.30
2019-03-05T06:26:49.938Z,99.30
2019-03-05T06:29:16.436Z,99.30
2019-03-05T06:31:42.867Z,99.40
2019-03-05T06:34:09.320Z,99.40
2019-03-05T06:36:50.652Z,99.50
2019-03-05T06:39:17.060Z,99.20
2019-03-05T06:41:43.484Z,99.20
2019-03-05T06:44:09.808Z,99.10
2019-03-05T06:46:36.178Z,99.20
2019-03-05T06:49:03.596Z,99.10
2019-03-05T06:51:30.222Z,97.80
2019-03-05T06:53:56.649Z,96.50
2019-03-05T06:56:23.209Z,95.50
2019-03-05T06:58:49.530Z,96.10
2019-03-05T07:01:16.013Z,96.60
2019-03-05T07:03:42.420Z,96.70
2019-03-05T07:06:41.837Z,95.80
2019-03-05T07:09:27.179Z,95.20
2019-03-05T07:12:15.158Z,95.80
2019-03-05T07:15:05.046Z,97.00
2019-03-05T07:17:44.697Z,97.50
2019-03-05T07:20:24.053Z,97.50
2019-03-05T07:23:06.402Z,97.90
2019-03-05T07:25:32.724Z,98.10
2019-03-05T07:27:59.251Z,98.00
2019-03-05T07:30:25.677Z,98.20
2019-03-05T07:32:52.270Z,97.90
2019-03-05T07:35:19.284Z,97.90
2019-03-05T07:37:45.831Z,97.60
2019-03-05T07:40:12.372Z,96.40
2019-03-05T07:42:39.744Z,94.70
2019-03-05T07:45:09.389Z,92.90
2019-03-05T07:47:36.002Z,92.10
2019-03-05T07:50:05.258Z,91.60
2019-03-05T07:52:32.156Z,92.00
2019-03-05T07:54:58.724Z,93.00
2019-03-05T07:57:25.147Z,94.20
2019-03-05T07:59:51.509Z,94.90
2019-03-05T08:02:17.897Z,95.40
2019-03-05T08:04:44.287Z,95.20
2019-03-05T08:07:10.625Z,93.80
2019-03-05T08:09:37.191Z,92.40
2019-03-05T08:12:10.154Z,93.40
2019-03-05T08:15:04.534Z,94.30
2019-03-05T08:17:31.193Z,94.60
2019-03-05T08:19:57.590Z,94.80
2019-03-05T08:22:23.953Z,95.40
2019-03-05T08:24:50.481Z,95.80
2019-03-05T08:27:16.871Z,96.50
2019-03-05T08:29:43.260Z,96.20
2019-03-05T08:32:09.679Z,96.10
2019-03-05T08:34:36.093Z,96.50
2019-03-05T08:37:02.530Z,96.70
2019-03-05T08:39:28.986Z,97.00
2019-03-05T08:41:55.482Z,97.10
2019-03-05T08:44:21.922Z,96.80
2019-03-05T08:46:48.400Z,97.30
2019-03-05T08:49:17.890Z,97.30
2019-03-05T08:51:44.115Z,97.10
2019-03-05T08:54:10.435Z,97.20
2019-03-05T08:56:37.051Z,97.60
2019-03-05T08:59:03.910Z,97.10
2019-03-05T09:01:30.397Z,97.40
2019-03-05T09:03:57.012Z,97.60
2019-03-05T09:06:23.407Z,97.50
2019-03-05T09:08:49.865Z,97.50
2019-03-05T09:11:16.244Z,97.20
2019-03-05T09:13:43.379Z,97.40
2019-03-05T09:16:09.824Z,97.40
2019-03-05T09:18:36.252Z,97.70
2019-03-05T09:21:02.820Z,97.50
2019-03-05T09:23:29.314Z,97.60
2019-03-05T09:25:55.746Z,98.10
2019-03-05T09:28:22.132Z,97.90
2019-03-05T09:30:48.647Z,98.50
2019-03-05T09:33:15.045Z,98.30
2019-03-05T09:35:41.468Z,98.10
2019-03-05T09:38:07.898Z,97.80
2019-03-05T09:40:34.460Z,97.90
2019-03-05T09:43:00.851Z,97.90
2019-03-05T09:45:28.364Z,98.00
2019-03-05T09:47:55.015Z,97.80
2019-03-05T09:50:22.533Z,97.90
2019-03-05T09:52:54.808Z,97.50
2019-03-05T09:55:29.614Z,97.50
2019-03-05T09:58:07.004Z,97.20
2019-03-05T10:00:25.188Z,96.40
2019-03-05T10:02:51.660Z,96.20
2019-03-05T10:05:18.808Z,96.10
2019-03-05T10:07:45.433Z,96.40
2019-03-05T10:10:15.681Z,96.50
2019-03-05T10:12:42.171Z,96.00
2019-03-05T10:15:20.494Z,96.40
2019-03-05T10:17:49.787Z,96.40
2019-03-05T10:20:22.698Z,97.10
2019-03-05T10:22:49.344Z,97.30
2019-03-05T10:25:24.329Z,97.10
2019-03-05T10:27:51.073Z,96.60
2019-03-05T10:30:40.427Z,95.40
2019-03-05T10:33:11.273Z,95.90
2019-03-05T10:35:38.153Z,95.50
2019-03-05T10:38:06.599Z,96.00
2019-03-05T10:40:36.493Z,95.60
2019-03-05T10:43:08.439Z,95.30
2019-03-05T10:45:35.063Z,95.70
2019-03-05T10:48:01.881Z,95.10
2019-03-05T10:50:29.948Z,95.80
2019-03-05T10:52:57.143Z,95.40
2019-03-05T10:55:26.592Z,95.90
2019-03-05T10:57:52.144Z,95.90
2019-03-05T11:00:26.155Z,96.30
2019-03-05T11:02:54.307Z,96.40
2019-03-05T11:05:20.712Z,96.90
2019-03-05T11:07:47.226Z,96.90
2019-03-05T11:10:15.336Z,96.60
2019-03-05T11:12:42.488Z,96.50
2019-03-05T11:15:16.498Z,96.40
2019-03-05T11:17:43.227Z,96.50
2019-03-05T11:20:11.211Z,96.50
2019-03-05T11:22:37.794Z,96.80
2019-03-05T11:25:08.183Z,96.80
2019-03-05T11:27:34.729Z,96.70
2019-03-05T11:30:01.212Z,96.30
2019-03-05T11:32:28.480Z,94.90
2019-03-05T11:34:55.124Z,93.90
2019-03-05T11:37:21.579Z,93.70
2019-03-05T11:39:48.205Z,94.00
2019-03-05T11:42:15.666Z,94.90
2019-03-05T11:44:42.125Z,95.00
2019-03-05T11:47:08.475Z,95.30
2019-03-05T11:49:35.023Z,96.00
2019-03-05T11:52:01.502Z,98.10
2019-03-05T11:54:28.168Z,99.90
2019-03-05T11:56:54.586Z,99.90
2019-03-05T11:59:21.755Z,99.90
2019-03-05T12:01:48.343Z,99.90
2019-03-05T12:04:16.044Z,99.90
2019-03-05T12:06:42.480Z,99.90
2019-03-05T12:09:08.973Z,99.90
2019-03-05T12:11:35.928Z,99.90
2019-03-05T12:14:02.467Z,99.90
2019-03-05T12:16:29.090Z,99.90
2019-03-05T12:18:55.511Z,99.90
2019-03-05T12:21:21.900Z,99.90
2019-03-05T12:23:48.572Z,99.90
2019-03-05T12:26:15.111Z,99.90
2019-03-05T12:28:42.597Z,99.90
2019-03-05T12:31:08.986Z,99.00
2019-03-05T12:33:35.653Z,99.50
2019-03-05T12:36:02.239Z,99.10
2019-03-05T12:38:29.258Z,97.40
2019-03-05T12:40:56.085Z,96.20
2019-03-05T12:43:22.514Z,95.30
2019-03-05T12:45:48.902Z,95.40
2019-03-05T12:48:15.299Z,94.40
2019-03-05T12:50:41.732Z,94.30
2019-03-05T12:53:08.279Z,95.10
2019-03-05T12:55:35.461Z,94.80
2019-03-05T12:58:01.947Z,93.00
2019-03-05T13:00:33.314Z,87.50
2019-03-05T13:02:59.681Z,90.10
2019-03-05T13:05:26.426Z,90.10
2019-03-05T13:07:56.501Z,88.30
2019-03-05T13:10:26.473Z,89.40
2019-03-05T13:12:52.880Z,89.50
2019-03-05T13:15:31.569Z,91.60
2019-03-05T13:17:59.057Z,93.10
2019-03-05T13:20:26.209Z,93.70
2019-03-05T13:22:53.344Z,94.30
2019-03-05T13:25:24.317Z,94.20
2019-03-05T13:27:50.408Z,92.50
2019-03-05T13:30:21.961Z,90.50
2019-03-05T13:32:49.355Z,89.90
2019-03-05T13:35:17.293Z,83.10
2019-03-05T13:37:45.052Z,84.50
2019-03-05T13:40:14.204Z,89.40
2019-03-05T13:42:40.656Z,91.20
2019-03-05T13:45:09.125Z,91.80
2019-03-05T13:47:37.097Z,92.40
2019-03-05T13:50:25.984Z,93.00
2019-03-05T13:53:02.188Z,93.50
2019-03-05T13:55:40.294Z,92.90
2019-03-05T13:58:13.206Z,93.90
2019-03-05T14:00:39.696Z,94.00
2019-03-05T14:03:09.894Z,93.10
2019-03-05T14:05:49.205Z,92.50
2019-03-05T14:08:34.417Z,93.30
2019-03-05T14:11:00.796Z,93.20
2019-03-05T14:13:27.306Z,93.70
2019-03-05T14:15:53.842Z,93.70
2019-03-05T14:18:20.316Z,93.90
2019-03-05T14:20:46.755Z,93.80
2019-03-05T14:23:13.138Z,94.20
2019-03-05T14:25:39.553Z,94.70
2019-03-05T14:28:06.082Z,94.80
2019-03-05T14:30:33.079Z,94.90
2019-03-05T14:33:00.861Z,95.00
2019-03-05T14:35:27.999Z,95.00
2019-03-05T14:37:54.546Z,95.30
2019-03-05T14:40:25.030Z,95.20
2019-03-05T14:42:51.899Z,95.40
2019-03-05T14:45:21.137Z,95.20
2019-03-05T14:47:47.814Z,95.50
2019-03-05T14:50:14.430Z,95.20
2019-03-05T14:52:40.834Z,95.40
2019-03-05T14:55:09.069Z,95.30
2019-03-05T14:57:35.519Z,95.10
2019-03-05T15:00:02.998Z,94.40
2019-03-05T15:02:30.587Z,95.40
2019-03-05T15:04:57.059Z,95.10
2019-03-05T15:07:23.462Z,95.10
2019-03-05T15:09:49.908Z,95.30
2019-03-05T15:12:17.449Z,94.50
2019-03-05T15:14:43.766Z,94.00
2019-03-05T15:17:10.302Z,94.10
2019-03-05T15:19:36.863Z,93.90
2019-03-05T15:22:03.257Z,94.30
2019-03-05T15:24:29.622Z,95.20
2019-03-05T15:26:56.162Z,95.60
2019-03-05T15:29:22.698Z,96.10
2019-03-05T15:31:49.146Z,96.70
2019-03-05T15:34:15.518Z,96.90
2019-03-05T15:36:42.010Z,97.10
2019-03-05T15:39:08.545Z,97.40
2019-03-05T15:41:36.872Z,97.50
2019-03-05T15:44:03.349Z,97.10
2019-03-05T15:46:29.884Z,96.70
2019-03-05T15:48:56.543Z,96.60
2019-03-05T15:51:22.905Z,96.30
2019-03-05T15:53:49.256Z,96.10
2019-03-05T15:56:16.267Z,96.30
2019-03-05T15:58:43.601Z,96.20
2019-03-05T16:01:18.736Z,96.00
2019-03-05T16:03:38.612Z,95.90
2019-03-05T16:06:05.711Z,95.90
2019-03-05T16:08:32.681Z,95.90
2019-03-05T16:10:59.327Z,95.50
2019-03-05T16:13:26.079Z,95.20
2019-03-05T16:15:53.039Z,95.00
2019-03-05T16:18:19.454Z,94.90
2019-03-05T16:20:45.895Z,94.50
2019-03-05T16:23:12.417Z,93.90
2019-03-05T16:25:39.751Z,93.70
2019-03-05T16:28:07.381Z,93.70
2019-03-05T16:30:52.318Z,93.10
2019-03-05T16:33:23.556Z,93.10
2019-03-05T16:36:00.041Z,93.30
2019-03-05T16:38:37.623Z,93.30
2019-03-05T16:41:06.326Z,93.40
2019-03-05T16:43:34.702Z,93.20
2019-03-05T16:46:19.667Z,92.90
2019-03-05T16:48:53.574Z,92.80
2019-03-05T16:51:27.896Z,93.20
2019-03-05T16:54:06.324Z,93.00
2019-03-05T16:56:51.433Z,92.90
2019-03-05T16:59:36.325Z,93.00
2019-03-05T17:02:05.254Z,93.00
2019-03-05T17:04:43.323Z,93.00
2019-03-05T17:07:29.974Z,93.10
2019-03-05T17:10:13.853Z,93.10
2019-03-05T17:12:40.480Z,93.60
2019-03-05T17:15:08.718Z,93.90
2019-03-05T17:17:35.440Z,94.50
2019-03-05T17:20:02.224Z,95.20
2019-03-05T17:22:30.306Z,95.50
2019-03-05T17:24:56.932Z,95.90
2019-03-05T17:27:23.473Z,96.00
2019-03-05T17:29:50.186Z,96.00
2019-03-05T17:32:16.647Z,96.20
2019-03-05T17:34:43.223Z,96.30
2019-03-05T17:37:10.045Z,96.40
2019-03-05T17:39:36.524Z,96.50
2019-03-05T17:42:03.166Z,96.50
2019-03-05T17:44:29.969Z,96.40
2019-03-05T17:46:56.520Z,96.30
2019-03-05T17:49:23.110Z,96.00
2019-03-05T17:51:49.798Z,95.90
2019-03-05T17:54:16.326Z,96.00
2019-03-05T17:56:42.803Z,95.70
2019-03-05T17:59:09.521Z,96.00
2019-03-05T18:01:36.134Z,96.20
2019-03-05T18:04:02.607Z,95.90
2019-03-05T18:06:29.372Z,95.80
2019-03-05T18:08:55.814Z,95.60
2019-03-05T18:11:22.318Z,96.00
2019-03-05T18:13:48.880Z,95.70
2019-03-05T18:16:15.502Z,95.60
2019-03-05T18:18:41.978Z,95.50
2019-03-05T18:21:08.539Z,95.60
2019-03-05T18:23:34.990Z,95.40
2019-03-05T18:26:01.443Z,95.60
2019-03-05T18:28:28.808Z,95.70
2019-03-05T18:30:55.364Z,95.70
2019-03-05T18:33:22.198Z,95.70
2019-03-05T18:35:48.894Z,95.60
2019-03-05T18:38:15.378Z,95.80
2019-03-05T18:40:41.904Z,95.60
2019-03-05T18:43:08.300Z,95.90
2019-03-05T18:45:37.439Z,96.00
2019-03-05T18:48:04.390Z,96.00
2019-03-05T18:50:31.157Z,96.20
2019-03-05T18:52:59.699Z,96.30
2019-03-05T18:55:27.188Z,96.40
2019-03-05T18:57:54.467Z,96.50
2019-03-05T19:00:22.687Z,96.80
2019-03-05T19:02:50.783Z,96.90
2019-03-05T19:05:18.469Z,97.10
2019-03-05T19:07:46.866Z,97.20
2019-03-05T19:10:21.242Z,97.50
2019-03-05T19:12:49.675Z,97.90
2019-03-05T19:15:20.619Z,98.10
2019-03-05T19:17:47.173Z,98.30
2019-03-05T19:20:16.461Z,98.50
2019-03-05T19:22:42.933Z,98.60
2019-03-05T19:25:13.202Z,98.80
2019-03-05T19:27:39.645Z,98.90
2019-03-05T19:30:18.571Z,99.10
2019-03-05T19:32:45.151Z,99.30
2019-03-05T19:35:11.718Z,99.40
2019-03-05T19:37:38.199Z,99.60
2019-03-05T19:40:16.566Z,99.90
2019-03-05T19:42:43.012Z,99.90
2019-03-05T19:45:13.594Z,99.90
2019-03-05T19:47:41.021Z,99.90
2019-03-05T19:50:11.110Z,99.90
2019-03-05T19:52:38.268Z,99.90
2019-03-05T19:55:08.465Z,99.90
2019-03-05T19:57:35.274Z,99.90
2019-03-05T20:00:09.606Z,99.90
2019-03-05T20:02:36.163Z,99.90
2019-03-05T20:05:04.324Z,99.90
2019-03-05T20:07:31.441Z,99.90
2019-03-05T20:09:58.000Z,99.90
2019-03-05T20:12:24.386Z,99.90
2019-03-05T20:14:50.825Z,99.90
2019-03-05T20:17:17.285Z,99.90
2019-03-05T20:19:43.742Z,99.90
2019-03-05T20:22:10.155Z,99.90
2019-03-05T20:24:36.769Z,99.90
2019-03-05T20:27:03.142Z,99.90
2019-03-05T20:29:29.758Z,99.90
2019-03-05T20:31:56.248Z,99.90
2019-03-05T20:34:22.737Z,99.90
2019-03-05T20:36:49.408Z,99.90
2019-03-05T20:39:15.927Z,99.90
2019-03-05T20:41:44.016Z,99.90
2019-03-05T20:44:10.484Z,99.90
2019-03-05T20:46:37.066Z,99.90
2019-03-05T20:49:03.711Z,99.90
2019-03-05T20:51:30.208Z,99.90
2019-03-05T20:53:57.952Z,99.90
2019-03-05T20:56:24.435Z,99.90
2019-03-05T20:58:50.983Z,99.90
2019-03-05T21:01:18.625Z,99.90
2019-03-05T21:03:45.119Z,99.90
2019-03-05T21:06:11.898Z,99.90
2019-03-05T21:08:38.471Z,99.90
2019-03-05T21:11:05.310Z,99.90
2019-03-05T21:13:32.401Z,99.90
2019-03-05T21:15:58.889Z,99.90
2019-03-05T21:18:25.369Z,99.90
2019-03-05T21:20:52.056Z,99.90
2019-03-05T21:23:18.904Z,99.90
2019-03-05T21:25:45.259Z,99.90
2019-03-05T21:28:12.868Z,99.90
2019-03-05T21:30:39.422Z,99.90
2019-03-05T21:33:05.943Z,99.90
2019-03-05T21:35:32.545Z,99.90
2019-03-05T21:37:59.169Z,99.90
2019-03-05T21:40:27.222Z,99.90
2019-03-05T21:42:53.839Z,99.90
2019-03-05T21:45:32.373Z,99.90
2019-03-05T21:47:59.771Z,99.90
2019-03-05T21:50:26.208Z,99.90
2019-03-05T21:52:52.628Z,99.90
2019-03-05T21:55:19.144Z,99.90
2019-03-05T21:57:45.520Z,99.90
2019-03-05T22:00:18.103Z,99.90
2019-03-05T22:02:44.620Z,99.90
2019-03-05T22:05:11.250Z,99.90
2019-03-05T22:07:38.311Z,99.90
2019-03-05T22:10:12.104Z,99.90
2019-03-05T22:12:38.589Z,99.90
2019-03-05T22:15:08.814Z,99.90
2019-03-05T22:17:35.511Z,99.90
2019-03-05T22:20:02.536Z,99.90
2019-03-05T22:22:29.688Z,99.90
2019-03-05T22:24:56.110Z,99.90
2019-03-05T22:27:22.559Z,99.90
2019-03-05T22:29:48.987Z,99.90
2019-03-05T22:32:15.459Z,99.90
2019-03-05T22:34:41.848Z,99.90
2019-03-05T22:37:09.395Z,99.90
2019-03-05T22:39:35.729Z,99.90
2019-03-05T22:42:02.235Z,99.90
2019-03-05T22:44:28.597Z,99.90
2019-03-05T22:46:55.000Z,99.90
2019-03-05T22:49:21.404Z,99.90
2019-03-05T22:51:48.779Z,99.90
2019-03-05T22:54:15.190Z,99.90
2019-03-05T22:56:41.600Z,99.90
2019-03-05T22:59:07.952Z,99.90
2019-03-05T23:01:35.711Z,99.90
2019-03-05T23:04:03.155Z,99.90
2019-03-05T23:06:29.707Z,99.90
2019-03-05T23:08:56.288Z,99.90
2019-03-05T23:11:23.139Z,99.90
2019-03-05T23:13:50.103Z,99.90
2019-03-05T23:16:17.167Z,99.90
2019-03-05T23:18:43.566Z,99.90
2019-03-05T23:21:10.311Z,99.90
2019-03-05T23:23:37.055Z,99.90
2019-03-05T23:26:04.412Z,99.90
2019-03-05T23:28:30.822Z,99.90
2019-03-05T23:30:57.218Z,99.90
2019-03-05T23:33:24.287Z,99.90
2019-03-05T23:35:50.679Z,99.90
2019-03-05T23:38:17.222Z,99.90
2019-03-05T23:40:44.012Z,99.90
2019-03-05T23:43:10.461Z,99.90
2019-03-05T23:45:36.847Z,99.90
2019-03-05T23:48:03.180Z,99.90
2019-03-05T23:50:29.558Z,99.90
2019-03-05T23:52:55.897Z,99.90
2019-03-05T23:55:22.291Z,99.90
2019-03-05T23:57:48.616Z,99.90
